createdAt,value
2023-08-28T00:02:18.270Z,8.85
2023-08-28T00:04:45.811Z,8.48
2023-08-28T00:07:14.524Z,9.45
2023-08-28T00:09:42.138Z,9.00
2023-08-28T00:12:09.921Z,8.98
2023-08-28T00:14:37.560Z,8.90
2023-08-28T00:17:08.503Z,8.80
2023-08-28T00:19:36.170Z,8.82
2023-08-28T00:22:03.885Z,8.95
2023-08-28T00:24:31.792Z,9.80
2023-08-28T00:26:59.433Z,9.98
2023-08-28T00:29:27.335Z,10.90
2023-08-28T00:31:54.980Z,11.75
2023-08-28T00:34:22.731Z,12.15
2023-08-28T00:36:50.898Z,13.02
2023-08-28T00:39:19.057Z,12.68
2023-08-28T00:41:46.684Z,14.63
2023-08-28T00:44:14.259Z,15.27
2023-08-28T00:46:41.950Z,15.93
2023-08-28T00:49:09.670Z,16.92
2023-08-28T00:51:37.368Z,17.13
2023-08-28T00:54:05.132Z,19.10
2023-08-28T00:56:32.809Z,19.38
2023-08-28T00:59:00.664Z,19.58
2023-08-28T01:01:28.463Z,21.38
2023-08-28T01:03:56.046Z,21.67
2023-08-28T01:06:29.982Z,22.65
2023-08-28T01:09:15.696Z,23.05
2023-08-28T01:12:01.988Z,23.63
2023-08-28T01:14:33.316Z,22.13
2023-08-28T01:17:04.893Z,21.48
2023-08-28T01:19:34.374Z,21.00
2023-08-28T01:22:11.162Z,19.70
2023-08-28T01:24:43.475Z,17.52
2023-08-28T01:27:11.393Z,17.67
2023-08-28T01:29:39.000Z,15.85
2023-08-28T01:32:06.648Z,15.15
2023-08-28T01:34:34.322Z,15.48
2023-08-28T01:37:08.396Z,15.32
2023-08-28T01:39:42.056Z,15.95
2023-08-28T01:42:10.232Z,14.10
2023-08-28T01:44:38.418Z,14.48
2023-08-28T01:47:06.364Z,12.95
2023-08-28T01:49:36.552Z,13.40
2023-08-28T01:52:04.171Z,13.35
2023-08-28T01:54:31.933Z,12.00
2023-08-28T01:56:59.560Z,13.25
2023-08-28T01:59:27.139Z,14.00
2023-08-28T02:01:57.187Z,14.77
2023-08-28T02:04:24.856Z,16.95
2023-08-28T02:06:52.880Z,17.83
2023-08-28T02:09:20.483Z,17.70
2023-08-28T02:11:48.079Z,17.20
2023-08-28T02:14:16.267Z,16.55
2023-08-28T02:16:44.815Z,18.00
2023-08-28T02:19:12.503Z,18.02
2023-08-28T02:21:41.115Z,18.45
2023-08-28T02:36:38.737Z,20.38
2023-08-28T02:39:06.220Z,23.83
2023-08-28T02:41:33.519Z,23.17
2023-08-28T02:44:00.773Z,20.20
2023-08-28T02:46:28.080Z,20.95
2023-08-28T02:48:55.574Z,19.10
2023-08-28T02:51:22.970Z,18.77
2023-08-28T02:53:50.451Z,20.20
2023-08-28T02:56:26.622Z,21.20
2023-08-28T02:58:54.993Z,20.85
2023-08-28T03:01:22.768Z,19.80
2023-08-28T03:03:50.269Z,20.42
2023-08-28T03:06:17.634Z,22.17
2023-08-28T03:08:45.029Z,20.73
2023-08-28T03:11:12.410Z,21.25
2023-08-28T03:13:39.693Z,22.80
2023-08-28T03:16:16.676Z,24.02
2023-08-28T03:18:44.187Z,21.85
2023-08-28T03:21:11.822Z,23.30
2023-08-28T03:23:39.484Z,22.17
2023-08-28T03:26:08.566Z,24.00
2023-08-28T03:28:35.905Z,22.80
2023-08-28T03:31:03.508Z,21.55
2023-08-28T03:33:31.009Z,20.85
2023-08-28T03:36:00.472Z,22.13
2023-08-28T03:38:27.830Z,19.10
2023-08-28T03:40:55.504Z,17.73
2023-08-28T03:43:22.857Z,15.18
2023-08-28T03:45:50.256Z,18.45
2023-08-28T03:48:17.771Z,19.17
2023-08-28T03:50:47.059Z,20.83
2023-08-28T03:53:14.357Z,19.92
2023-08-28T03:55:41.702Z,19.27
2023-08-28T03:58:09.110Z,19.00
2023-08-28T04:00:36.537Z,20.98
2023-08-28T04:03:04.523Z,20.45
2023-08-28T04:05:34.137Z,21.17
2023-08-28T04:08:01.911Z,20.65
2023-08-28T04:10:54.978Z,18.73
2023-08-28T04:13:22.437Z,19.58
2023-08-28T04:15:51.040Z,19.17
2023-08-28T04:18:18.828Z,18.92
2023-08-28T04:20:46.210Z,19.17
2023-08-28T04:23:14.342Z,18.98
2023-08-28T04:25:41.694Z,21.17
2023-08-28T04:28:09.774Z,21.92
2023-08-28T04:30:37.173Z,22.10
2023-08-28T04:33:07.081Z,22.45
2023-08-28T04:35:34.740Z,24.33
2023-08-28T04:38:02.086Z,23.60
2023-08-28T04:40:30.397Z,24.73
2023-08-28T04:42:57.860Z,23.58
2023-08-28T04:45:25.300Z,23.90
2023-08-28T04:47:52.779Z,22.75
2023-08-28T04:50:22.206Z,23.02
2023-08-28T04:52:52.835Z,22.50
2023-08-28T04:55:20.263Z,22.52
2023-08-28T04:57:47.574Z,22.65
2023-08-28T05:00:15.704Z,22.75
2023-08-28T05:02:45.288Z,22.02
2023-08-28T05:05:12.621Z,21.63
2023-08-28T05:07:40.066Z,22.15
2023-08-28T05:10:07.773Z,21.35
2023-08-28T05:12:35.100Z,22.38
2023-08-28T05:15:02.396Z,23.08
2023-08-28T05:17:29.785Z,23.17
2023-08-28T05:19:57.135Z,23.52
2023-08-28T05:22:24.571Z,23.30
2023-08-28T05:24:51.885Z,21.92
2023-08-28T05:27:19.307Z,21.42
2023-08-28T05:29:48.598Z,21.35
2023-08-28T05:32:15.994Z,20.08
2023-08-28T05:34:43.381Z,19.33
2023-08-28T05:37:10.900Z,18.67
2023-08-28T05:39:39.484Z,18.25
2023-08-28T05:42:06.776Z,17.50
2023-08-28T05:44:34.083Z,17.35
2023-08-28T05:47:01.522Z,16.13
2023-08-28T05:49:28.820Z,13.30
2023-08-28T05:51:56.117Z,13.10
2023-08-28T05:54:23.372Z,12.55
2023-08-28T05:56:50.771Z,12.55
2023-08-28T05:59:18.105Z,11.13
2023-08-28T06:01:45.700Z,11.60
2023-08-28T06:04:13.898Z,11.27
2023-08-28T06:06:41.190Z,9.02
2023-08-28T06:09:08.850Z,9.43
2023-08-28T06:11:36.294Z,9.05
2023-08-28T06:14:05.841Z,8.65
2023-08-28T06:16:33.169Z,8.00
2023-08-28T06:19:00.562Z,7.72
2023-08-28T06:21:27.925Z,7.82
2023-08-28T06:23:57.011Z,7.70
2023-08-28T06:26:28.146Z,7.07
2023-08-28T06:28:55.579Z,7.00
2023-08-28T06:31:22.858Z,6.72
2023-08-28T06:33:50.273Z,6.25
2023-08-28T06:36:17.560Z,6.13
2023-08-28T06:38:44.905Z,6.40
2023-08-28T06:41:12.704Z,5.95
2023-08-28T06:43:39.936Z,5.03
2023-08-28T06:46:07.670Z,5.38
2023-08-28T06:48:35.013Z,5.70
2023-08-28T06:51:02.367Z,5.20
2023-08-28T06:53:29.641Z,5.10
2023-08-28T06:55:57.836Z,4.82
2023-08-28T06:58:25.148Z,5.32
2023-08-28T07:00:52.498Z,4.72
2023-08-28T07:03:19.786Z,4.80
2023-08-28T07:05:47.164Z,4.93
2023-08-28T07:08:14.557Z,4.53
2023-08-28T07:10:41.942Z,5.05
2023-08-28T07:13:09.665Z,5.18
2023-08-28T07:15:36.968Z,4.72
2023-08-28T07:18:04.589Z,4.70
2023-08-28T07:20:32.902Z,4.40
2023-08-28T07:23:00.256Z,4.82
2023-08-28T07:25:29.215Z,5.30
2023-08-28T07:27:56.938Z,5.40
2023-08-28T07:30:24.376Z,5.38
2023-08-28T07:32:51.744Z,5.28
2023-08-28T07:35:19.048Z,5.25
2023-08-28T07:37:46.295Z,5.80
2023-08-28T07:40:13.737Z,6.10
2023-08-28T07:42:41.161Z,5.95
2023-08-28T07:45:08.918Z,6.38
2023-08-28T07:47:36.399Z,6.10
2023-08-28T07:52:51.029Z,5.95
2023-08-28T07:55:18.523Z,6.13
2023-08-28T07:57:45.923Z,6.10
2023-08-28T08:00:15.217Z,6.80
2023-08-28T08:02:43.000Z,6.57
2023-08-28T08:05:12.984Z,6.38
2023-08-28T08:07:43.071Z,6.90
2023-08-28T08:10:12.141Z,6.15
2023-08-28T08:12:39.721Z,6.20
2023-08-28T08:15:08.281Z,6.05
2023-08-28T08:17:38.864Z,6.53
2023-08-28T08:20:19.459Z,6.55
2023-08-28T08:22:47.673Z,6.28
2023-08-28T08:25:14.968Z,5.85
2023-08-28T08:27:45.733Z,4.95
2023-08-28T08:30:14.761Z,5.85
2023-08-28T08:32:44.390Z,5.75
2023-08-28T08:35:14.919Z,6.75
2023-08-28T08:37:42.492Z,6.20
2023-08-28T08:40:14.864Z,6.78
2023-08-28T08:42:42.408Z,7.03
2023-08-28T08:45:11.247Z,6.80
2023-08-28T08:47:41.537Z,6.45
2023-08-28T08:50:15.886Z,6.63
2023-08-28T08:52:44.353Z,6.38
2023-08-28T08:55:42.104Z,5.90
2023-08-28T08:58:16.034Z,5.22
2023-08-28T09:00:47.087Z,5.30
2023-08-28T09:03:15.454Z,5.70
2023-08-28T09:05:44.668Z,6.25
2023-08-28T09:08:13.763Z,6.10
2023-08-28T09:10:44.354Z,5.55
2023-08-28T09:13:11.908Z,6.20
2023-08-28T09:15:39.884Z,5.57
2023-08-28T09:18:07.726Z,6.00
2023-08-28T09:20:35.875Z,6.40
2023-08-28T09:23:03.323Z,6.03
2023-08-28T09:25:30.721Z,6.45
2023-08-28T09:27:58.444Z,6.05
2023-08-28T09:30:28.834Z,6.40
2023-08-28T09:33:01.733Z,6.18
2023-08-28T09:35:35.335Z,5.70
2023-08-28T09:38:03.157Z,6.03
2023-08-28T09:40:41.670Z,5.28
2023-08-28T09:43:14.043Z,4.32
2023-08-28T09:45:43.050Z,4.38
2023-08-28T09:48:11.713Z,4.65
2023-08-28T09:50:40.786Z,4.60
2023-08-28T09:53:09.748Z,4.80
2023-08-28T09:55:41.024Z,4.70
2023-08-28T09:58:12.131Z,5.22
2023-08-28T10:00:41.145Z,4.68
2023-08-28T10:03:18.027Z,4.80
2023-08-28T10:05:46.906Z,4.47
2023-08-28T10:08:16.274Z,3.95
2023-08-28T10:10:49.016Z,4.40
2023-08-28T10:13:21.053Z,3.47
2023-08-28T10:15:51.408Z,2.50
2023-08-28T10:18:33.094Z,2.65
2023-08-28T10:21:01.789Z,2.95
2023-08-28T10:23:30.507Z,2.80
2023-08-28T10:25:59.446Z,2.70
2023-08-28T10:28:28.593Z,2.88
2023-08-28T10:30:58.345Z,2.88
2023-08-28T10:33:26.929Z,2.55
2023-08-28T10:35:55.976Z,2.72
2023-08-28T10:38:24.205Z,2.70
2023-08-28T10:40:54.820Z,2.35
2023-08-28T10:43:24.331Z,2.60
2023-08-28T10:45:53.567Z,2.60
2023-08-28T10:48:22.311Z,2.50
2023-08-28T10:50:49.710Z,2.22
2023-08-28T10:53:17.602Z,2.53
2023-08-28T10:56:00.163Z,2.25
2023-08-28T10:58:38.193Z,2.25
2023-08-28T11:01:16.356Z,1.95
2023-08-28T11:03:52.838Z,2.17
2023-08-28T11:06:45.180Z,2.35
2023-08-28T11:09:28.681Z,2.20
2023-08-28T11:12:16.695Z,1.92
2023-08-28T11:14:58.607Z,2.40
2023-08-28T11:17:26.866Z,2.33
2023-08-28T11:19:54.310Z,2.20
2023-08-28T11:22:39.097Z,1.90
2023-08-28T11:25:16.028Z,2.40
2023-08-28T11:27:55.293Z,2.25
2023-08-28T11:30:23.124Z,2.50
2023-08-28T11:32:52.927Z,2.25
2023-08-28T11:35:22.463Z,2.30
2023-08-28T11:37:52.662Z,2.22
2023-08-28T11:40:24.637Z,2.30
2023-08-28T11:43:05.227Z,2.55
2023-08-28T11:45:33.696Z,3.03
2023-08-28T11:48:02.520Z,4.00
2023-08-28T11:50:30.449Z,4.80
2023-08-28T11:52:57.960Z,5.85
2023-08-28T11:55:25.523Z,6.47
2023-08-28T11:57:53.025Z,7.53
2023-08-28T12:00:22.124Z,7.38
2023-08-28T12:02:50.190Z,8.52
2023-08-28T12:05:21.695Z,8.50
2023-08-28T12:07:50.972Z,9.23
2023-08-28T12:10:19.476Z,9.75
2023-08-28T12:12:53.093Z,9.50
2023-08-28T12:15:20.439Z,8.93
2023-08-28T12:17:50.175Z,9.02
2023-08-28T12:20:20.697Z,8.80
2023-08-28T12:22:48.455Z,8.70
2023-08-28T12:25:16.383Z,8.82
2023-08-28T12:27:44.936Z,9.15
2023-08-28T12:30:20.341Z,9.18
2023-08-28T12:32:53.068Z,8.30
2023-08-28T12:35:23.652Z,7.22
2023-08-28T12:37:52.957Z,6.55
2023-08-28T12:40:20.756Z,6.03
2023-08-28T12:42:48.328Z,5.47
2023-08-28T12:45:15.716Z,5.85
2023-08-28T12:47:43.113Z,5.32
2023-08-28T12:50:11.440Z,4.90
2023-08-28T12:52:38.875Z,4.50
2023-08-28T12:55:06.231Z,3.95
2023-08-28T12:57:33.657Z,4.20
2023-08-28T13:00:00.916Z,4.07
2023-08-28T13:02:28.353Z,4.50
2023-08-28T13:04:55.701Z,4.30
2023-08-28T13:07:22.995Z,4.18
2023-08-28T13:09:50.276Z,4.53
2023-08-28T13:12:17.617Z,4.95
2023-08-28T13:14:44.928Z,4.43
2023-08-28T13:17:12.654Z,3.65
2023-08-28T13:19:39.896Z,4.47
2023-08-28T13:22:07.164Z,4.57
2023-08-28T13:24:43.882Z,4.22
2023-08-28T13:27:15.275Z,3.80
2023-08-28T13:29:44.736Z,3.67
2023-08-28T13:32:12.118Z,3.65
2023-08-28T13:34:39.483Z,3.45
2023-08-28T13:37:14.963Z,3.63
2023-08-28T13:39:43.692Z,3.35
2023-08-28T13:42:12.896Z,3.30
2023-08-28T13:44:40.898Z,3.33
2023-08-28T13:47:08.387Z,3.45
2023-08-28T13:50:00.994Z,3.42
2023-08-28T13:52:28.435Z,3.28
2023-08-28T13:54:55.752Z,3.42
2023-08-28T13:57:54.584Z,3.72
2023-08-28T14:00:22.963Z,3.35
2023-08-28T14:02:50.367Z,3.83
2023-08-28T14:05:18.008Z,4.28
2023-08-28T14:07:45.564Z,3.80
2023-08-28T14:10:13.148Z,3.95
2023-08-28T14:12:40.813Z,4.20
2023-08-28T14:15:08.612Z,4.50
2023-08-28T14:17:36.152Z,3.83
2023-08-28T14:20:05.119Z,3.88
2023-08-28T14:22:37.021Z,3.50
2023-08-28T14:25:06.027Z,3.67
2023-08-28T14:27:42.468Z,4.15
2023-08-28T14:30:21.478Z,3.40
2023-08-28T14:32:48.870Z,3.25
2023-08-28T14:35:18.890Z,3.60
2023-08-28T14:37:47.447Z,2.53
2023-08-28T14:40:15.001Z,2.65
2023-08-28T14:42:42.524Z,2.72
2023-08-28T14:45:10.006Z,2.53
2023-08-28T14:47:37.324Z,1.98
2023-08-28T14:50:04.978Z,2.13
2023-08-28T14:52:32.330Z,1.85
2023-08-28T14:55:01.744Z,1.95
2023-08-28T14:57:29.241Z,1.80
2023-08-28T14:59:56.579Z,1.88
2023-08-28T15:02:23.929Z,2.22
2023-08-28T15:04:51.305Z,1.88
2023-08-28T15:07:18.610Z,2.10
2023-08-28T15:09:46.099Z,1.63
2023-08-28T15:12:15.026Z,1.60
2023-08-28T15:14:43.476Z,1.77
2023-08-28T15:17:11.518Z,1.40
2023-08-28T15:19:40.551Z,1.90
2023-08-28T15:22:07.890Z,1.83
2023-08-28T15:24:35.781Z,2.03
2023-08-28T15:27:05.368Z,3.15
2023-08-28T15:29:32.682Z,1.90
2023-08-28T15:32:00.699Z,2.25
2023-08-28T15:34:27.929Z,1.73
2023-08-28T15:36:55.468Z,2.17
2023-08-28T15:39:22.962Z,2.67
2023-08-28T15:41:50.291Z,1.98
2023-08-28T15:44:17.559Z,1.63
2023-08-28T15:46:45.092Z,1.98
2023-08-28T15:49:12.397Z,2.78
2023-08-28T15:51:40.134Z,1.88
2023-08-28T15:54:07.602Z,2.20
2023-08-28T15:56:37.636Z,2.00
2023-08-28T15:59:37.784Z,1.85
2023-08-28T16:02:05.252Z,1.65
2023-08-28T16:04:33.344Z,2.17
2023-08-28T16:07:00.710Z,1.98
2023-08-28T16:09:28.275Z,1.58
2023-08-28T16:11:56.249Z,1.70
2023-08-28T16:14:25.637Z,1.40
2023-08-28T16:16:53.277Z,1.67
2023-08-28T16:19:23.181Z,1.52
2023-08-28T16:21:52.958Z,1.90
2023-08-28T16:24:20.777Z,1.85
2023-08-28T16:26:48.138Z,1.70
2023-08-28T16:29:15.518Z,1.48
2023-08-28T16:31:43.527Z,1.42
2023-08-28T16:34:11.441Z,1.30
2023-08-28T16:36:38.786Z,1.30
2023-08-28T16:39:06.678Z,1.23
2023-08-28T16:41:34.040Z,1.60
2023-08-28T16:44:02.520Z,1.85
2023-08-28T16:46:31.290Z,2.20
2023-08-28T16:48:58.726Z,2.05
2023-08-28T16:51:26.226Z,1.95
2023-08-28T16:53:53.763Z,1.83
2023-08-28T16:56:21.349Z,2.40
2023-08-28T16:58:49.662Z,2.15
2023-08-28T17:01:17.078Z,1.95
2023-08-28T17:03:44.440Z,2.60
2023-08-28T17:06:17.973Z,2.38
2023-08-28T17:08:45.315Z,1.80
2023-08-28T17:11:12.839Z,1.60
2023-08-28T17:13:40.294Z,1.90
2023-08-28T17:16:53.399Z,1.70
2023-08-28T17:19:21.171Z,1.48
2023-08-28T17:21:48.802Z,1.65
2023-08-28T17:27:22.898Z,2.55
2023-08-28T17:30:16.625Z,2.60
2023-08-28T17:33:40.564Z,2.58
2023-08-28T17:36:00.169Z,2.30
2023-08-28T17:38:31.083Z,1.80
2023-08-28T17:40:58.568Z,2.50
2023-08-28T17:43:25.888Z,1.48
2023-08-28T17:45:54.846Z,1.80
2023-08-28T17:48:22.254Z,1.60
2023-08-28T17:50:52.892Z,1.60
2023-08-28T17:53:20.289Z,1.40
2023-08-28T17:55:49.505Z,1.60
2023-08-28T17:58:17.145Z,1.65
2023-08-28T18:00:47.935Z,2.10
2023-08-28T18:03:28.851Z,1.77
2023-08-28T18:06:04.012Z,2.00
2023-08-28T18:08:32.034Z,2.10
2023-08-28T18:10:59.519Z,3.05
2023-08-28T18:13:26.897Z,2.40
2023-08-28T18:15:54.386Z,2.47
2023-08-28T18:18:21.901Z,2.20
2023-08-28T18:23:39.506Z,2.20
2023-08-28T18:26:07.250Z,2.30
2023-08-28T18:28:34.711Z,2.15
2023-08-28T18:31:03.142Z,2.20
2023-08-28T18:33:30.420Z,2.15
2023-08-28T18:36:00.959Z,2.38
2023-08-28T18:38:28.306Z,2.03
2023-08-28T18:40:56.030Z,2.30
2023-08-28T18:43:23.399Z,2.15
2023-08-28T18:45:50.655Z,2.10
2023-08-28T18:48:20.227Z,2.10
2023-08-28T18:50:49.953Z,2.10
2023-08-28T18:53:18.102Z,1.85
2023-08-28T18:55:56.829Z,2.20
2023-08-28T18:58:24.120Z,1.98
2023-08-28T19:00:52.030Z,2.15
2023-08-28T19:03:19.639Z,2.30
2023-08-28T19:05:49.232Z,1.90
2023-08-28T19:08:16.960Z,2.30
2023-08-28T19:10:44.230Z,2.28
2023-08-28T19:13:11.830Z,2.35
2023-08-28T19:15:39.261Z,2.40
2023-08-28T19:18:06.847Z,2.20
2023-08-28T19:20:45.911Z,2.50
2023-08-28T19:23:24.406Z,3.00
2023-08-28T19:25:52.088Z,2.30
2023-08-28T19:28:19.680Z,2.22
2023-08-28T19:30:47.299Z,2.65
2023-08-28T19:33:14.524Z,2.58
2023-08-28T19:35:42.224Z,2.38
2023-08-28T19:38:09.828Z,3.03
2023-08-28T19:40:37.222Z,2.83
2023-08-28T19:43:04.818Z,2.97
2023-08-28T19:45:32.504Z,2.83
2023-08-28T19:48:01.062Z,2.40
2023-08-28T19:50:28.706Z,2.60
2023-08-28T19:53:07.680Z,2.70
2023-08-28T19:55:36.276Z,2.67
2023-08-28T19:58:04.635Z,2.60
2023-08-28T20:00:32.711Z,2.58
2023-08-28T20:03:00.438Z,2.80
2023-08-28T20:05:30.123Z,2.80
2023-08-28T20:07:57.388Z,3.05
2023-08-28T20:10:24.705Z,3.08
2023-08-28T20:12:52.160Z,3.40
2023-08-28T20:15:22.754Z,3.30
2023-08-28T20:17:51.746Z,2.40
2023-08-28T20:20:19.460Z,3.28
2023-08-28T20:22:48.277Z,2.72
2023-08-28T20:25:15.711Z,2.78
2023-08-28T20:27:44.320Z,3.30
2023-08-28T20:30:19.327Z,3.30
2023-08-28T20:32:46.639Z,2.67
2023-08-28T20:35:14.047Z,3.00
2023-08-28T20:37:41.300Z,2.97
2023-08-28T20:40:13.050Z,2.47
2023-08-28T20:42:42.775Z,2.67
2023-08-28T20:45:10.671Z,3.30
2023-08-28T20:47:38.940Z,3.30
2023-08-28T20:50:08.253Z,3.20
2023-08-28T20:52:36.444Z,3.58
2023-08-28T20:55:04.719Z,3.22
2023-08-28T20:57:32.186Z,3.42
2023-08-28T20:59:59.474Z,3.42
2023-08-28T21:02:27.259Z,2.78
2023-08-28T21:04:55.607Z,2.95
2023-08-28T21:07:24.580Z,3.63
2023-08-28T21:09:52.434Z,3.65
2023-08-28T21:12:20.181Z,3.75
2023-08-28T21:14:48.116Z,3.50
2023-08-28T21:17:15.577Z,3.78
2023-08-28T21:19:42.914Z,4.63
2023-08-28T21:22:10.546Z,4.28
2023-08-28T21:24:38.280Z,4.10
2023-08-28T21:27:05.985Z,4.13
2023-08-28T21:29:33.454Z,5.22
2023-08-28T21:32:01.316Z,4.63
2023-08-28T21:34:29.034Z,5.70
2023-08-28T21:36:58.983Z,6.60
2023-08-28T21:39:26.870Z,5.15
2023-08-28T21:41:54.380Z,6.45
2023-08-28T21:44:21.735Z,6.63
2023-08-28T21:46:49.678Z,6.03
2023-08-28T21:49:35.850Z,6.32
2023-08-28T21:52:21.602Z,6.05
2023-08-28T21:57:53.730Z,6.80
2023-08-28T22:00:40.576Z,7.45
2023-08-28T22:03:26.704Z,6.80
2023-08-28T22:08:40.060Z,7.00
2023-08-28T22:11:33.892Z,6.45
2023-08-28T22:14:09.985Z,8.05
2023-08-28T22:16:38.221Z,8.00
2023-08-28T22:19:06.182Z,8.65
2023-08-28T22:21:33.530Z,7.70
2023-08-28T22:24:01.180Z,7.82
2023-08-28T22:26:28.627Z,7.55
2023-08-28T22:28:55.872Z,8.25
2023-08-28T22:31:23.283Z,8.40
2023-08-28T22:33:50.598Z,9.80
2023-08-28T22:36:17.957Z,8.00
2023-08-28T22:38:46.330Z,9.52
2023-08-28T22:41:13.576Z,10.43
2023-08-28T22:43:40.903Z,9.98
2023-08-28T22:46:08.350Z,10.50
2023-08-28T22:48:36.683Z,10.32
2023-08-28T22:51:04.099Z,10.73
2023-08-28T22:53:31.314Z,10.90
2023-08-28T22:55:58.780Z,10.82
2023-08-28T22:58:26.073Z,10.93
2023-08-28T23:00:53.454Z,11.60
2023-08-28T23:03:20.903Z,12.18
2023-08-28T23:05:48.370Z,11.80
2023-08-28T23:08:15.647Z,13.68
2023-08-28T23:10:42.991Z,13.02
2023-08-28T23:13:10.276Z,13.57
2023-08-28T23:15:37.957Z,13.65
2023-08-28T23:18:06.228Z,13.02
2023-08-28T23:20:33.964Z,14.05
2023-08-28T23:23:01.237Z,13.35
2023-08-28T23:25:28.536Z,14.70
2023-08-28T23:27:55.950Z,14.30
2023-08-28T23:30:23.344Z,14.63
2023-08-28T23:32:53.242Z,13.05
2023-08-28T23:35:21.747Z,12.90
2023-08-28T23:37:49.120Z,12.52
2023-08-28T23:40:16.698Z,13.52
2023-08-28T23:42:44.048Z,13.13
2023-08-28T23:45:11.811Z,13.20
2023-08-28T23:47:39.099Z,14.35
2023-08-28T23:50:07.622Z,13.30
2023-08-28T23:52:34.900Z,13.80
2023-08-28T23:55:04.703Z,13.05
2023-08-28T23:57:32.754Z,13.50
